Página principal
METAR-TAF:

METAR-TAF

Aeroportos :

Fuerteventura, Espanha

latitude: 28-27N, longitude: 013-52W, altura: 22 m

Observação actual do tempo

O boletim foi feito há 19 minutos, às 22:30 UTC
Vento 11 kt de norte
Temperatura 18°C
Humidade 64%
Pressão 1017 hPa
Visibilidade 10 km ou mais
Poucas nuvensa uma altura de 3500 ft

METAR: GCFV 152230Z 36011KT 9999 FEW035 18/11 Q1017

Hora: 22:49 (22:49 UTC)

Previsão

O boletim foi feito há 2 horas e 49 minutos, às 20:00 UTC
Previsão válida de 15 às 21 UTC a 16 às 21 UTC
Vento 17 kt de nordeste
Visibilidade 10 km ou mais
Nuvens dispersasa uma altura de 3500 ft
Probabilidade 30% :
Temporariamente
de 15 às 21 UTC a 16 às 09 UTC
Vento 12 kt de nor-noroeste

TAF: GCFV 152000Z 1521/1621 04017KT 9999 SCT035 TX22/1614Z TN17/1606Z PROB30 TEMPO 1521/1609 34012KT

Observações e previsões do tempo de mais de 4000 aeroportos (mensagens METAR e TAF).

As estações disponíveis são os pontos amarelos e vermelhos sobre o mapa.

Mova o rato sobre o mapa para ver o nome da estação.

Depois clique no ponto para visualizar as observações e previsões meteorológicas.

Para alterar o mapa : clique nos botões verdes com uma cruz preta para aumentar o zoom; no botão verde com uma pitada de zoom; ou nas setas verdes para mapas adjacentes.


METAR-TAF: